sensor_id;sensor_type;location;lat;lon;timestamp;pressure;altitude;pressure_sealevel;temperature;humidity
41383;BME280;27971;53.902;9.118;2022-12-10T00:05:05;100928.0;;;18.45;27.38
41383;BME280;27971;53.902;9.118;2022-12-10T00:07:07;100929.0;;;18.62;27.12
41383;BME280;27971;53.902;9.118;2022-12-10T00:09:12;100926.0;;;18.71;26.9
41383;BME280;27971;53.902;9.118;2022-12-10T00:11:15;100924.0;;;18.95;26.61
41383;BME280;27971;53.902;9.118;2022-12-10T00:13:16;100923.0;;;19.91;26.55
41383;BME280;27971;53.902;9.118;2022-12-10T00:15:19;100924.0;;;20.09;26.58
41383;BME280;27971;53.902;9.118;2022-12-10T00:17:22;100923.0;;;19.84;26.86
41383;BME280;27971;53.902;9.118;2022-12-10T00:19:24;100921.0;;;19.9;26.86
41383;BME280;27971;53.902;9.118;2022-12-10T00:21:28;100919.0;;;19.67;27.08
41383;BME280;27971;53.902;9.118;2022-12-10T00:23:29;100917.0;;;19.81;27.01
41383;BME280;27971;53.902;9.118;2022-12-10T00:25:32;100921.0;;;19.6;27.14
41383;BME280;27971;53.902;9.118;2022-12-10T00:27:34;100919.0;;;19.74;27.1
41383;BME280;27971;53.902;9.118;2022-12-10T00:29:38;100917.0;;;19.76;27.08
41383;BME280;27971;53.902;9.118;2022-12-10T00:31:40;100918.0;;;19.73;27.1
41383;BME280;27971;53.902;9.118;2022-12-10T00:33:43;100919.0;;;19.66;27.14
41383;BME280;27971;53.902;9.118;2022-12-10T00:35:46;100922.0;;;19.61;27.13
41383;BME280;27971;53.902;9.118;2022-12-10T00:37:48;100922.0;;;19.66;27.13
41383;BME280;27971;53.902;9.118;2022-12-10T00:39:51;100922.0;;;19.55;27.16
41383;BME280;27971;53.902;9.118;2022-12-10T00:41:54;100924.0;;;19.48;27.27
41383;BME280;27971;53.902;9.118;2022-12-10T00:43:56;100928.0;;;19.62;27.18
41383;BME280;27971;53.902;9.118;2022-12-10T00:45:59;100931.0;;;19.6;27.18
41383;BME280;27971;53.902;9.118;2022-12-10T00:48:02;100935.0;;;19.52;27.24
41383;BME280;27971;53.902;9.118;2022-12-10T00:50:05;100937.0;;;19.57;27.24
41383;BME280;27971;53.902;9.118;2022-12-10T00:52:07;100940.0;;;19.28;27.44
41383;BME280;27971;53.902;9.118;2022-12-10T00:54:10;100941.0;;;19.33;27.44
41383;BME280;27971;53.902;9.118;2022-12-10T00:56:14;100945.0;;;19.62;27.2
41383;BME280;27971;53.902;9.118;2022-12-10T00:58:15;100946.0;;;19.6;27.2
41383;BME280;27971;53.902;9.118;2022-12-10T01:00:18;100945.0;;;19.53;27.31
41383;BME280;27971;53.902;9.118;2022-12-10T01:02:21;100945.0;;;19.51;27.29
41383;BME280;27971;53.902;9.118;2022-12-10T01:04:23;100944.0;;;19.48;27.33
41383;BME280;27971;53.902;9.118;2022-12-10T01:06:27;100947.0;;;19.31;27.42
41383;BME280;27971;53.902;9.118;2022-12-10T01:08:28;100951.0;;;19.53;27.26
41383;BME280;27971;53.902;9.118;2022-12-10T01:10:31;100953.0;;;19.43;27.36
41383;BME280;27971;53.902;9.118;2022-12-10T01:12:33;100953.0;;;19.28;27.5
41383;BME280;27971;53.902;9.118;2022-12-10T01:14:36;100955.0;;;19.31;27.49
41383;BME280;27971;53.902;9.118;2022-12-10T01:16:38;100958.0;;;19.4;27.36
41383;BME280;27971;53.902;9.118;2022-12-10T01:18:41;100960.0;;;19.31;27.41
41383;BME280;27971;53.902;9.118;2022-12-10T01:20:43;100960.0;;;19.17;27.61
41383;BME280;27971;53.902;9.118;2022-12-10T01:22:46;100961.0;;;19.18;27.57
41383;BME280;27971;53.902;9.118;2022-12-10T01:24:49;100965.0;;;19.3;27.45
41383;BME280;27971;53.902;9.118;2022-12-10T01:26:52;100964.0;;;19.43;27.31
41383;BME280;27971;53.902;9.118;2022-12-10T01:28:55;100964.0;;;19.54;27.25
41383;BME280;27971;53.902;9.118;2022-12-10T01:31:00;100965.0;;;19.47;27.25
41383;BME280;27971;53.902;9.118;2022-12-10T01:32:59;100966.0;;;19.4;27.39
41383;BME280;27971;53.902;9.118;2022-12-10T01:35:01;100964.0;;;19.52;27.24
41383;BME280;27971;53.902;9.118;2022-12-10T01:37:04;100964.0;;;19.39;27.37
41383;BME280;27971;53.902;9.118;2022-12-10T01:39:10;100964.0;;;19.36;27.34
41383;BME280;27971;53.902;9.118;2022-12-10T01:41:14;100963.0;;;19.35;27.4
41383;BME280;27971;53.902;9.118;2022-12-10T01:43:13;100963.0;;;19.48;27.34
41383;BME280;27971;53.902;9.118;2022-12-10T01:45:15;100962.0;;;19.42;27.35
41383;BME280;27971;53.902;9.118;2022-12-10T01:47:17;100964.0;;;19.42;27.3
41383;BME280;27971;53.902;9.118;2022-12-10T01:49:23;100965.0;;;19.29;27.4
41383;BME280;27971;53.902;9.118;2022-12-10T01:51:25;100966.0;;;19.27;27.46
41383;BME280;27971;53.902;9.118;2022-12-10T01:53:26;100967.0;;;19.37;27.37
41383;BME280;27971;53.902;9.118;2022-12-10T01:55:41;100968.0;;;19.19;27.46
41383;BME280;27971;53.902;9.118;2022-12-10T01:57:32;100970.0;;;19.51;27.39
41383;BME280;27971;53.902;9.118;2022-12-10T01:59:35;100970.0;;;19.39;27.38
41383;BME280;27971;53.902;9.118;2022-12-10T02:01:46;100972.0;;;19.44;27.35
41383;BME280;27971;53.902;9.118;2022-12-10T02:03:52;100970.0;;;19.47;27.41
41383;BME280;27971;53.902;9.118;2022-12-10T02:05:49;100972.0;;;19.4;27.42
41383;BME280;27971;53.902;9.118;2022-12-10T02:07:56;100972.0;;;19.5;27.31
41383;BME280;27971;53.902;9.118;2022-12-10T02:09:55;100973.0;;;19.4;27.41
41383;BME280;27971;53.902;9.118;2022-12-10T02:12:01;100975.0;;;19.27;27.53
41383;BME280;27971;53.902;9.118;2022-12-10T02:13:59;100977.0;;;19.34;27.46
41383;BME280;27971;53.902;9.118;2022-12-10T02:16:03;100977.0;;;19.36;27.41
41383;BME280;27971;53.902;9.118;2022-12-10T02:18:05;100976.0;;;19.15;27.55
41383;BME280;27971;53.902;9.118;2022-12-10T02:20:09;100975.0;;;19.45;27.3
41383;BME280;27971;53.902;9.118;2022-12-10T02:22:09;100975.0;;;19.44;27.31
41383;BME280;27971;53.902;9.118;2022-12-10T02:24:15;100975.0;;;19.32;27.35
41383;BME280;27971;53.902;9.118;2022-12-10T02:26:22;100975.0;;;19.32;27.39
41383;BME280;27971;53.902;9.118;2022-12-10T02:28:21;100976.0;;;19.19;27.51
41383;BME280;27971;53.902;9.118;2022-12-10T02:30:20;100978.0;;;19.04;27.62
41383;BME280;27971;53.902;9.118;2022-12-10T02:32:24;100981.0;;;19.15;27.52
41383;BME280;27971;53.902;9.118;2022-12-10T02:34:28;100982.0;;;19.4;27.3
41383;BME280;27971;53.902;9.118;2022-12-10T02:36:35;100981.0;;;19.35;27.35
41383;BME280;27971;53.902;9.118;2022-12-10T02:38:32;100982.0;;;19.35;27.33
41383;BME280;27971;53.902;9.118;2022-12-10T02:40:35;100980.0;;;19.17;27.5
41383;BME280;27971;53.902;9.118;2022-12-10T02:42:38;100978.0;;;19.41;27.26
41383;BME280;27971;53.902;9.118;2022-12-10T02:44:40;100981.0;;;19.44;27.22
41383;BME280;27971;53.902;9.118;2022-12-10T02:46:43;100983.0;;;19.28;27.33
41383;BME280;27971;53.902;9.118;2022-12-10T02:48:46;100984.0;;;19.17;27.37
41383;BME280;27971;53.902;9.118;2022-12-10T02:50:47;100984.0;;;19.18;27.42
41383;BME280;27971;53.902;9.118;2022-12-10T02:52:50;100986.0;;;19.28;27.32
41383;BME280;27971;53.902;9.118;2022-12-10T02:54:52;100985.0;;;19.21;27.37
41383;BME280;27971;53.902;9.118;2022-12-10T02:56:59;100986.0;;;19.06;27.48
41383;BME280;27971;53.902;9.118;2022-12-10T02:59:07;100987.0;;;19.18;27.39
41383;BME280;27971;53.902;9.118;2022-12-10T03:01:19;100987.0;;;19.41;27.3
41383;BME280;27971;53.902;9.118;2022-12-10T03:03:14;100989.0;;;19.28;27.43
41383;BME280;27971;53.902;9.118;2022-12-10T03:05:13;100989.0;;;19.34;27.31
41383;BME280;27971;53.902;9.118;2022-12-10T03:07:14;100987.0;;;19.23;27.4
41383;BME280;27971;53.902;9.118;2022-12-10T03:09:18;100986.0;;;19.24;27.32
41383;BME280;27971;53.902;9.118;2022-12-10T03:11:18;100987.0;;;19.23;27.36
41383;BME280;27971;53.902;9.118;2022-12-10T03:13:23;100986.0;;;19.14;27.38
41383;BME280;27971;53.902;9.118;2022-12-10T03:15:24;100987.0;;;19.28;27.32
41383;BME280;27971;53.902;9.118;2022-12-10T03:17:26;100984.0;;;19.26;27.28
41383;BME280;27971;53.902;9.118;2022-12-10T03:19:31;100981.0;;;19.04;27.43
41383;BME280;27971;53.902;9.118;2022-12-10T03:21:32;100982.0;;;19.07;27.44
41383;BME280;27971;53.902;9.118;2022-12-10T03:23:35;100982.0;;;19.14;27.36
41383;BME280;27971;53.902;9.118;2022-12-10T03:25:37;100981.0;;;19.25;27.25
41383;BME280;27971;53.902;9.118;2022-12-10T03:27:39;100980.0;;;19.28;27.24
41383;BME280;27971;53.902;9.118;2022-12-10T03:29:44;100983.0;;;19.16;27.26
41383;BME280;27971;53.902;9.118;2022-12-10T03:31:44;100984.0;;;19.4;27.09
41383;BME280;27971;53.902;9.118;2022-12-10T03:33:46;100987.0;;;19.32;27.08
41383;BME280;27971;53.902;9.118;2022-12-10T03:35:49;100986.0;;;19.17;27.2
41383;BME280;27971;53.902;9.118;2022-12-10T03:37:51;100986.0;;;19.16;27.21
41383;BME280;27971;53.902;9.118;2022-12-10T03:39:55;100984.0;;;19.28;27.13
41383;BME280;27971;53.902;9.118;2022-12-10T03:41:56;100984.0;;;19.27;27.12
41383;BME280;27971;53.902;9.118;2022-12-10T03:43:59;100982.0;;;19.35;27.06
41383;BME280;27971;53.902;9.118;2022-12-10T03:46:02;100981.0;;;19.13;27.2
41383;BME280;27971;53.902;9.118;2022-12-10T03:48:05;100983.0;;;19.0;27.32
41383;BME280;27971;53.902;9.118;2022-12-10T03:50:08;100982.0;;;19.16;27.16
41383;BME280;27971;53.902;9.118;2022-12-10T03:52:10;100981.0;;;19.14;27.16
41383;BME280;27971;53.902;9.118;2022-12-10T03:54:12;100981.0;;;19.16;27.2
41383;BME280;27971;53.902;9.118;2022-12-10T03:56:15;100982.0;;;19.09;27.25
41383;BME280;27971;53.902;9.118;2022-12-10T03:58:17;100981.0;;;18.98;27.24
41383;BME280;27971;53.902;9.118;2022-12-10T04:00:21;100984.0;;;18.94;27.34
41383;BME280;27971;53.902;9.118;2022-12-10T04:02:23;100985.0;;;19.08;27.21
41383;BME280;27971;53.902;9.118;2022-12-10T04:04:26;100985.0;;;19.1;27.15
41383;BME280;27971;53.902;9.118;2022-12-10T04:06:28;100986.0;;;19.09;27.21
41383;BME280;27971;53.902;9.118;2022-12-10T04:08:31;100985.0;;;19.23;27.05
41383;BME280;27971;53.902;9.118;2022-12-10T04:10:35;100988.0;;;18.97;27.28
41383;BME280;27971;53.902;9.118;2022-12-10T04:12:36;100987.0;;;19.02;27.2
41383;BME280;27971;53.902;9.118;2022-12-10T04:14:39;100986.0;;;19.16;27.1
41383;BME280;27971;53.902;9.118;2022-12-10T04:16:41;100986.0;;;19.05;27.2
41383;BME280;27971;53.902;9.118;2022-12-10T04:18:44;100983.0;;;19.05;27.17
41383;BME280;27971;53.902;9.118;2022-12-10T04:20:46;100983.0;;;19.1;27.15
41383;BME280;27971;53.902;9.118;2022-12-10T04:22:48;100984.0;;;19.07;27.17
41383;BME280;27971;53.902;9.118;2022-12-10T04:24:51;100986.0;;;18.97;27.23
41383;BME280;27971;53.902;9.118;2022-12-10T04:26:55;100985.0;;;18.98;27.2
41383;BME280;27971;53.902;9.118;2022-12-10T04:28:57;100983.0;;;19.01;27.17
41383;BME280;27971;53.902;9.118;2022-12-10T04:30:59;100983.0;;;19.04;27.19
41383;BME280;27971;53.902;9.118;2022-12-10T04:33:02;100982.0;;;19.24;27.01
41383;BME280;27971;53.902;9.118;2022-12-10T04:35:05;100981.0;;;19.32;26.9
41383;BME280;27971;53.902;9.118;2022-12-10T04:37:06;100978.0;;;19.07;27.07
41383;BME280;27971;53.902;9.118;2022-12-10T04:39:09;100978.0;;;19.08;27.09
41383;BME280;27971;53.902;9.118;2022-12-10T04:41:11;100980.0;;;18.99;27.17
41383;BME280;27971;53.902;9.118;2022-12-10T04:43:14;100980.0;;;19.03;27.15
41383;BME280;27971;53.902;9.118;2022-12-10T04:45:16;100982.0;;;18.95;27.18
41383;BME280;27971;53.902;9.118;2022-12-10T04:47:19;100983.0;;;19.04;27.1
41383;BME280;27971;53.902;9.118;2022-12-10T04:49:21;100984.0;;;19.01;27.11
41383;BME280;27971;53.902;9.118;2022-12-10T04:51:24;100982.0;;;19.16;27.0
41383;BME280;27971;53.902;9.118;2022-12-10T04:53:26;100982.0;;;18.85;27.2
41383;BME280;27971;53.902;9.118;2022-12-10T04:55:29;100983.0;;;19.1;27.05
41383;BME280;27971;53.902;9.118;2022-12-10T04:57:31;100985.0;;;18.98;27.14
41383;BME280;27971;53.902;9.118;2022-12-10T04:59:34;100985.0;;;18.93;27.14
41383;BME280;27971;53.902;9.118;2022-12-10T05:01:37;100982.0;;;19.11;27.04
41383;BME280;27971;53.902;9.118;2022-12-10T05:03:40;100981.0;;;19.15;26.97
41383;BME280;27971;53.902;9.118;2022-12-10T05:05:42;100981.0;;;19.23;26.92
41383;BME280;27971;53.902;9.118;2022-12-10T05:07:46;100984.0;;;19.1;26.99
41383;BME280;27971;53.902;9.118;2022-12-10T05:09:48;100985.0;;;19.09;27.0
41383;BME280;27971;53.902;9.118;2022-12-10T05:11:51;100985.0;;;19.05;27.02
41383;BME280;27971;53.902;9.118;2022-12-10T05:13:53;100982.0;;;19.08;26.96
41383;BME280;27971;53.902;9.118;2022-12-10T05:15:57;100980.0;;;19.27;26.83
41383;BME280;27971;53.902;9.118;2022-12-10T05:17:59;100981.0;;;18.89;27.08
41383;BME280;27971;53.902;9.118;2022-12-10T05:20:02;100982.0;;;18.91;27.11
41383;BME280;27971;53.902;9.118;2022-12-10T05:22:05;100981.0;;;19.12;26.96
41383;BME280;27971;53.902;9.118;2022-12-10T05:24:08;100983.0;;;19.14;26.81
41383;BME280;27971;53.902;9.118;2022-12-10T05:26:12;100984.0;;;19.1;26.78
41383;BME280;27971;53.902;9.118;2022-12-10T05:28:14;100983.0;;;19.32;26.73
41383;BME280;27971;53.902;9.118;2022-12-10T05:30:16;100984.0;;;19.38;26.67
41383;BME280;27971;53.902;9.118;2022-12-10T05:32:18;100986.0;;;19.38;26.67
41383;BME280;27971;53.902;9.118;2022-12-10T05:34:21;100988.0;;;19.17;26.87
41383;BME280;27971;53.902;9.118;2022-12-10T05:36:25;100988.0;;;19.17;26.85
41383;BME280;27971;53.902;9.118;2022-12-10T05:38:28;100986.0;;;19.33;26.7
41383;BME280;27971;53.902;9.118;2022-12-10T05:40:29;100989.0;;;18.98;27.02
41383;BME280;27971;53.902;9.118;2022-12-10T05:42:32;100990.0;;;19.03;26.98
41383;BME280;27971;53.902;9.118;2022-12-10T05:44:34;100989.0;;;18.92;27.06
41383;BME280;27971;53.902;9.118;2022-12-10T05:46:36;100991.0;;;19.01;27.0
41383;BME280;27971;53.902;9.118;2022-12-10T05:48:39;100991.0;;;19.02;27.03
41383;BME280;27971;53.902;9.118;2022-12-10T05:50:42;100991.0;;;18.99;27.06
41383;BME280;27971;53.902;9.118;2022-12-10T05:52:44;100992.0;;;18.84;27.18
41383;BME280;27971;53.902;9.118;2022-12-10T05:54:47;100993.0;;;18.82;27.24
41383;BME280;27971;53.902;9.118;2022-12-10T05:56:49;100992.0;;;18.84;27.19
41383;BME280;27971;53.902;9.118;2022-12-10T05:58:53;100991.0;;;18.98;27.05
41383;BME280;27971;53.902;9.118;2022-12-10T06:00:55;100993.0;;;19.03;26.97
41383;BME280;27971;53.902;9.118;2022-12-10T06:02:57;100997.0;;;18.96;26.9
41383;BME280;27971;53.902;9.118;2022-12-10T06:05:00;100998.0;;;19.1;26.7
41383;BME280;27971;53.902;9.118;2022-12-10T06:07:02;100999.0;;;19.01;26.68
41383;BME280;27971;53.902;9.118;2022-12-10T06:09:06;100999.0;;;19.26;26.38
41383;BME280;27971;53.902;9.118;2022-12-10T06:11:10;101001.0;;;19.67;26.0
41383;BME280;27971;53.902;9.118;2022-12-10T06:13:11;101005.0;;;19.71;25.79
41383;BME280;27971;53.902;9.118;2022-12-10T06:15:13;101010.0;;;19.9;25.33
41383;BME280;27971;53.902;9.118;2022-12-10T06:17:16;101014.0;;;20.3;24.86
41383;BME280;27971;53.902;9.118;2022-12-10T06:19:18;101015.0;;;20.73;24.31
41383;BME280;27971;53.902;9.118;2022-12-10T06:21:22;101014.0;;;21.02;23.82
41383;BME280;27971;53.902;9.118;2022-12-10T06:23:25;101014.0;;;21.45;23.4
41383;BME280;27971;53.902;9.118;2022-12-10T06:25:27;101012.0;;;21.07;23.27
41383;BME280;27971;53.902;9.118;2022-12-10T06:27:30;101015.0;;;21.14;23.09
41383;BME280;27971;53.902;9.118;2022-12-10T06:29:32;101016.0;;;20.66;23.38
41383;BME280;27971;53.902;9.118;2022-12-10T06:31:35;101022.0;;;21.21;22.97
41383;BME280;27971;53.902;9.118;2022-12-10T06:33:37;101028.0;;;21.49;22.7
41383;BME280;27971;53.902;9.118;2022-12-10T06:35:40;101027.0;;;21.77;22.35
41383;BME280;27971;53.902;9.118;2022-12-10T06:37:42;101025.0;;;21.17;22.7
41383;BME280;27971;53.902;9.118;2022-12-10T06:39:44;101026.0;;;21.54;22.35
41383;BME280;27971;53.902;9.118;2022-12-10T06:41:47;101029.0;;;21.0;22.66
41383;BME280;27971;53.902;9.118;2022-12-10T06:43:49;101030.0;;;20.62;22.91
41383;BME280;27971;53.902;9.118;2022-12-10T06:45:52;101031.0;;;21.13;22.55
41383;BME280;27971;53.902;9.118;2022-12-10T06:47:54;101032.0;;;21.41;22.32
41383;BME280;27971;53.902;9.118;2022-12-10T06:49:57;101037.0;;;21.46;22.27
41383;BME280;27971;53.902;9.118;2022-12-10T06:51:59;101037.0;;;21.51;22.21
41383;BME280;27971;53.902;9.118;2022-12-10T06:54:02;101039.0;;;21.72;22.04
41383;BME280;27971;53.902;9.118;2022-12-10T06:56:06;101041.0;;;21.88;21.94
41383;BME280;27971;53.902;9.118;2022-12-10T06:58:06;101042.0;;;21.8;21.94
41383;BME280;27971;53.902;9.118;2022-12-10T07:00:11;101046.0;;;22.11;21.75
41383;BME280;27971;53.902;9.118;2022-12-10T07:02:12;101047.0;;;22.39;21.53
41383;BME280;27971;53.902;9.118;2022-12-10T07:04:15;101051.0;;;21.91;21.79
41383;BME280;27971;53.902;9.118;2022-12-10T07:06:18;101055.0;;;21.67;21.96
41383;BME280;27971;53.902;9.118;2022-12-10T07:08:21;101055.0;;;22.44;21.45
41383;BME280;27971;53.902;9.118;2022-12-10T07:10:23;101059.0;;;22.05;21.64
41383;BME280;27971;53.902;9.118;2022-12-10T07:12:26;101061.0;;;22.68;21.21
41383;BME280;27971;53.902;9.118;2022-12-10T07:14:29;101063.0;;;22.35;21.38
41383;BME280;27971;53.902;9.118;2022-12-10T07:16:32;101063.0;;;22.33;21.36
41383;BME280;27971;53.902;9.118;2022-12-10T07:18:34;101066.0;;;22.25;21.42
41383;BME280;27971;53.902;9.118;2022-12-10T07:20:36;101070.0;;;22.06;21.58
41383;BME280;27971;53.902;9.118;2022-12-10T07:22:39;101074.0;;;22.14;21.47
41383;BME280;27971;53.902;9.118;2022-12-10T07:24:41;101075.0;;;22.38;21.36
41383;BME280;27971;53.902;9.118;2022-12-10T07:26:45;101078.0;;;22.3;21.37
41383;BME280;27971;53.902;9.118;2022-12-10T07:28:47;101079.0;;;22.28;21.36
41383;BME280;27971;53.902;9.118;2022-12-10T07:30:50;101081.0;;;22.39;21.33
41383;BME280;27971;53.902;9.118;2022-12-10T07:32:52;101084.0;;;22.03;21.56
41383;BME280;27971;53.902;9.118;2022-12-10T07:34:54;101086.0;;;21.99;21.63
41383;BME280;27971;53.902;9.118;2022-12-10T07:36:57;101088.0;;;22.31;21.36
41383;BME280;27971;53.902;9.118;2022-12-10T07:38:59;101085.0;;;23.25;20.74
41383;BME280;27971;53.902;9.118;2022-12-10T07:41:02;101091.0;;;22.41;21.33
41383;BME280;27971;53.902;9.118;2022-12-10T07:43:05;101092.0;;;22.85;21.17
41383;BME280;27971;53.902;9.118;2022-12-10T07:45:08;101091.0;;;23.3;20.98
41383;BME280;27971;53.902;9.118;2022-12-10T07:47:10;101093.0;;;22.82;21.12
41383;BME280;27971;53.902;9.118;2022-12-10T07:49:13;101094.0;;;22.58;21.21
41383;BME280;27971;53.902;9.118;2022-12-10T07:51:18;101094.0;;;23.08;20.91
41383;BME280;27971;53.902;9.118;2022-12-10T07:53:18;101099.0;;;22.6;21.17
41383;BME280;27971;53.902;9.118;2022-12-10T07:55:21;101100.0;;;22.71;21.16
41383;BME280;27971;53.902;9.118;2022-12-10T07:57:24;101100.0;;;22.48;21.31
41383;BME280;27971;53.902;9.118;2022-12-10T07:59:26;101098.0;;;22.53;21.28
41383;BME280;27971;53.902;9.118;2022-12-10T08:01:28;101101.0;;;22.42;21.4
41383;BME280;27971;53.902;9.118;2022-12-10T08:03:31;101103.0;;;22.57;21.31
41383;BME280;27971;53.902;9.118;2022-12-10T08:05:33;101106.0;;;22.7;21.22
41383;BME280;27971;53.902;9.118;2022-12-10T08:07:35;101109.0;;;22.87;21.08
41383;BME280;27971;53.902;9.118;2022-12-10T08:09:38;101113.0;;;22.74;21.18
41383;BME280;27971;53.902;9.118;2022-12-10T08:11:40;101114.0;;;23.53;20.7
41383;BME280;27971;53.902;9.118;2022-12-10T08:13:43;101116.0;;;23.19;20.84
41383;BME280;27971;53.902;9.118;2022-12-10T08:15:46;101122.0;;;22.28;21.44
41383;BME280;27971;53.902;9.118;2022-12-10T08:17:48;101121.0;;;23.03;21.01
41383;BME280;27971;53.902;9.118;2022-12-10T08:19:51;101123.0;;;22.45;21.32
41383;BME280;27971;53.902;9.118;2022-12-10T08:21:53;101125.0;;;22.33;21.43
41383;BME280;27971;53.902;9.118;2022-12-10T08:23:56;101124.0;;;22.45;21.36
41383;BME280;27971;53.902;9.118;2022-12-10T08:25:58;101127.0;;;22.64;21.2
41383;BME280;27971;53.902;9.118;2022-12-10T08:28:00;101130.0;;;22.53;21.31
41383;BME280;27971;53.902;9.118;2022-12-10T08:30:04;101132.0;;;22.78;21.11
41383;BME280;27971;53.902;9.118;2022-12-10T08:32:05;101136.0;;;22.13;21.58
41383;BME280;27971;53.902;9.118;2022-12-10T08:34:12;101138.0;;;22.44;21.42
41383;BME280;27971;53.902;9.118;2022-12-10T08:36:12;101137.0;;;23.03;21.03
41383;BME280;27971;53.902;9.118;2022-12-10T08:38:14;101137.0;;;22.97;21.02
41383;BME280;27971;53.902;9.118;2022-12-10T08:40:16;101136.0;;;23.44;20.79
41383;BME280;27971;53.902;9.118;2022-12-10T08:42:18;101135.0;;;23.28;20.91
41383;BME280;27971;53.902;9.118;2022-12-10T08:44:21;101135.0;;;22.54;21.31
41383;BME280;27971;53.902;9.118;2022-12-10T08:46:24;101133.0;;;22.76;21.19
41383;BME280;27971;53.902;9.118;2022-12-10T08:48:26;101131.0;;;23.23;20.92
41383;BME280;27971;53.902;9.118;2022-12-10T08:50:29;101134.0;;;23.12;20.92
41383;BME280;27971;53.902;9.118;2022-12-10T08:52:31;101136.0;;;22.89;21.04
41383;BME280;27971;53.902;9.118;2022-12-10T08:54:33;101136.0;;;23.11;20.97
41383;BME280;27971;53.902;9.118;2022-12-10T08:56:35;101135.0;;;22.6;21.2
41383;BME280;27971;53.902;9.118;2022-12-10T08:58:38;101135.0;;;22.52;21.35
41383;BME280;27971;53.902;9.118;2022-12-10T09:00:41;101135.0;;;22.64;21.21
41383;BME280;27971;53.902;9.118;2022-12-10T09:02:43;101134.0;;;22.16;21.58
41383;BME280;27971;53.902;9.118;2022-12-10T09:04:47;101132.0;;;22.65;21.3
41383;BME280;27971;53.902;9.118;2022-12-10T09:06:49;101133.0;;;22.05;21.63
41383;BME280;27971;53.902;9.118;2022-12-10T09:08:52;101136.0;;;22.77;21.22
41383;BME280;27971;53.902;9.118;2022-12-10T09:10:54;101142.0;;;22.79;21.14
41383;BME280;27971;53.902;9.118;2022-12-10T09:12:57;101146.0;;;22.82;21.03
41383;BME280;27971;53.902;9.118;2022-12-10T09:14:59;101147.0;;;23.26;20.83
41383;BME280;27971;53.902;9.118;2022-12-10T09:17:03;101147.0;;;23.46;20.67
41383;BME280;27971;53.902;9.118;2022-12-10T09:19:04;101149.0;;;23.45;20.68
41383;BME280;27971;53.902;9.118;2022-12-10T09:21:08;101154.0;;;22.89;21.04
41383;BME280;27971;53.902;9.118;2022-12-10T09:23:09;101152.0;;;23.56;20.52
41383;BME280;27971;53.902;9.118;2022-12-10T09:25:12;101154.0;;;22.62;21.19
41383;BME280;27971;53.902;9.118;2022-12-10T09:27:14;101154.0;;;22.23;21.44
41383;BME280;27971;53.902;9.118;2022-12-10T09:29:17;101152.0;;;22.93;20.93
41383;BME280;27971;53.902;9.118;2022-12-10T09:31:20;101150.0;;;23.52;20.51
41383;BME280;27971;53.902;9.118;2022-12-10T09:33:22;101151.0;;;23.2;20.71
41383;BME280;27971;53.902;9.118;2022-12-10T09:35:24;101152.0;;;23.63;20.41
41383;BME280;27971;53.902;9.118;2022-12-10T09:37:26;101157.0;;;23.19;20.66
41383;BME280;27971;53.902;9.118;2022-12-10T09:39:29;101159.0;;;23.6;20.38
41383;BME280;27971;53.902;9.118;2022-12-10T09:41:47;101159.0;;;23.43;20.49
41383;BME280;27971;53.902;9.118;2022-12-10T09:43:44;101159.0;;;23.52;20.64
41383;BME280;27971;53.902;9.118;2022-12-10T09:45:44;101159.0;;;23.9;20.22
41383;BME280;27971;53.902;9.118;2022-12-10T09:47:45;101160.0;;;23.77;20.34
41383;BME280;27971;53.902;9.118;2022-12-10T09:49:55;101161.0;;;23.67;20.4
41383;BME280;27971;53.902;9.118;2022-12-10T09:51:47;101161.0;;;23.33;20.65
41383;BME280;27971;53.902;9.118;2022-12-10T09:53:52;101163.0;;;23.13;20.77
41383;BME280;27971;53.902;9.118;2022-12-10T09:55:53;101164.0;;;23.48;20.48
41383;BME280;27971;53.902;9.118;2022-12-10T09:57:55;101164.0;;;23.88;20.23
41383;BME280;27971;53.902;9.118;2022-12-10T10:00:02;101165.0;;;23.56;20.42
41383;BME280;27971;53.902;9.118;2022-12-10T10:02:05;101164.0;;;23.44;20.51
41383;BME280;27971;53.902;9.118;2022-12-10T10:04:03;101163.0;;;24.15;20.01
41383;BME280;27971;53.902;9.118;2022-12-10T10:06:08;101164.0;;;23.96;20.11
41383;BME280;27971;53.902;9.118;2022-12-10T10:08:14;101163.0;;;23.99;20.12
41383;BME280;27971;53.902;9.118;2022-12-10T10:10:20;101164.0;;;24.15;19.99
41383;BME280;27971;53.902;9.118;2022-12-10T10:12:15;101166.0;;;24.25;19.99
41383;BME280;27971;53.902;9.118;2022-12-10T10:14:21;101169.0;;;23.63;20.37
41383;BME280;27971;53.902;9.118;2022-12-10T10:16:23;101166.0;;;23.64;20.4
41383;BME280;27971;53.902;9.118;2022-12-10T10:18:37;101168.0;;;23.49;20.46
41383;BME280;27971;53.902;9.118;2022-12-10T10:20:24;101170.0;;;23.02;20.95
41383;BME280;27971;53.902;9.118;2022-12-10T10:22:27;101169.0;;;22.86;20.94
41383;BME280;27971;53.902;9.118;2022-12-10T10:24:34;101172.0;;;22.5;21.29
41383;BME280;27971;53.902;9.118;2022-12-10T10:26:34;101173.0;;;22.16;21.58
41383;BME280;27971;53.902;9.118;2022-12-10T10:28:36;101169.0;;;22.8;21.05
41383;BME280;27971;53.902;9.118;2022-12-10T10:30:42;101165.0;;;22.65;21.15
41383;BME280;27971;53.902;9.118;2022-12-10T10:32:47;101161.0;;;23.04;20.87
41383;BME280;27971;53.902;9.118;2022-12-10T10:34:45;101163.0;;;22.81;21.03
41383;BME280;27971;53.902;9.118;2022-12-10T10:36:48;101164.0;;;22.37;21.33
41383;BME280;27971;53.902;9.118;2022-12-10T10:38:50;101165.0;;;22.37;21.36
41383;BME280;27971;53.902;9.118;2022-12-10T10:40:54;101165.0;;;22.39;21.27
41383;BME280;27971;53.902;9.118;2022-12-10T10:42:57;101164.0;;;22.36;21.28
41383;BME280;27971;53.902;9.118;2022-12-10T10:44:58;101166.0;;;22.44;21.29
41383;BME280;27971;53.902;9.118;2022-12-10T10:47:01;101170.0;;;21.99;21.57
41383;BME280;27971;53.902;9.118;2022-12-10T10:49:24;101172.0;;;22.73;21.16
41383;BME280;27971;53.902;9.118;2022-12-10T10:51:13;101173.0;;;23.38;20.84
41383;BME280;27971;53.902;9.118;2022-12-10T10:53:29;101176.0;;;23.05;21.01
41383;BME280;27971;53.902;9.118;2022-12-10T10:55:31;101174.0;;;23.32;21.0